sensor_id;sensor_type;location;lat;lon;timestamp;P1;durP1;ratioP1;P2;durP2;ratioP2
11064;SDS011;5585;52.530;7.320;2023-02-28T00:00:07;4.33;;;3.30;;
11064;SDS011;5585;52.530;7.320;2023-02-28T00:02:35;6.37;;;4.60;;
11064;SDS011;5585;52.530;7.320;2023-02-28T00:05:02;6.93;;;4.10;;
11064;SDS011;5585;52.530;7.320;2023-02-28T00:07:28;6.60;;;4.03;;
11064;SDS011;5585;52.530;7.320;2023-02-28T00:09:55;6.00;;;4.27;;
11064;SDS011;5585;52.530;7.320;2023-02-28T00:12:23;8.30;;;5.37;;
11064;SDS011;5585;52.530;7.320;2023-02-28T00:14:50;6.53;;;4.83;;
11064;SDS011;5585;52.530;7.320;2023-02-28T00:17:16;6.97;;;4.83;;
11064;SDS011;5585;52.530;7.320;2023-02-28T00:19:46;6.67;;;4.90;;
11064;SDS011;5585;52.530;7.320;2023-02-28T00:22:12;5.93;;;5.20;;
11064;SDS011;5585;52.530;7.320;2023-02-28T00:24:39;6.80;;;5.30;;
11064;SDS011;5585;52.530;7.320;2023-02-28T00:27:05;8.10;;;5.10;;
11064;SDS011;5585;52.530;7.320;2023-02-28T00:29:33;8.87;;;5.40;;
11064;SDS011;5585;52.530;7.320;2023-02-28T00:32:00;8.40;;;5.10;;
11064;SDS011;5585;52.530;7.320;2023-02-28T00:34:27;7.20;;;5.70;;
11064;SDS011;5585;52.530;7.320;2023-02-28T00:36:53;7.20;;;4.97;;
11064;SDS011;5585;52.530;7.320;2023-02-28T00:39:20;5.80;;;4.83;;
11064;SDS011;5585;52.530;7.320;2023-02-28T00:41:46;5.30;;;4.43;;
11064;SDS011;5585;52.530;7.320;2023-02-28T00:44:13;8.00;;;5.37;;
11064;SDS011;5585;52.530;7.320;2023-02-28T00:46:41;5.50;;;4.43;;
11064;SDS011;5585;52.530;7.320;2023-02-28T00:49:07;5.53;;;4.23;;
11064;SDS011;5585;52.530;7.320;2023-02-28T00:51:34;4.93;;;4.40;;
11064;SDS011;5585;52.530;7.320;2023-02-28T00:54:00;5.90;;;4.70;;
11064;SDS011;5585;52.530;7.320;2023-02-28T00:56:27;5.10;;;4.27;;
11064;SDS011;5585;52.530;7.320;2023-02-28T00:58:53;5.30;;;3.80;;
11064;SDS011;5585;52.530;7.320;2023-02-28T01:01:20;5.60;;;4.37;;
11064;SDS011;5585;52.530;7.320;2023-02-28T01:03:48;5.90;;;4.03;;
11064;SDS011;5585;52.530;7.320;2023-02-28T01:06:14;5.40;;;4.27;;
11064;SDS011;5585;52.530;7.320;2023-02-28T01:08:41;5.03;;;3.60;;
11064;SDS011;5585;52.530;7.320;2023-02-28T01:11:08;5.40;;;3.90;;
11064;SDS011;5585;52.530;7.320;2023-02-28T01:13:35;4.33;;;3.83;;
11064;SDS011;5585;52.530;7.320;2023-02-28T01:16:01;5.00;;;4.03;;
11064;SDS011;5585;52.530;7.320;2023-02-28T01:18:28;6.03;;;4.40;;
11064;SDS011;5585;52.530;7.320;2023-02-28T01:20:57;5.33;;;3.97;;
11064;SDS011;5585;52.530;7.320;2023-02-28T01:23:23;7.10;;;4.47;;
11064;SDS011;5585;52.530;7.320;2023-02-28T01:25:50;4.73;;;3.77;;
11064;SDS011;5585;52.530;7.320;2023-02-28T01:28:16;4.13;;;3.47;;
11064;SDS011;5585;52.530;7.320;2023-02-28T01:30:46;5.30;;;3.67;;
11064;SDS011;5585;52.530;7.320;2023-02-28T01:33:13;4.93;;;4.00;;
11064;SDS011;5585;52.530;7.320;2023-02-28T01:35:41;4.93;;;3.40;;
11064;SDS011;5585;52.530;7.320;2023-02-28T01:38:09;4.47;;;3.47;;
11064;SDS011;5585;52.530;7.320;2023-02-28T01:40:36;6.40;;;3.87;;
11064;SDS011;5585;52.530;7.320;2023-02-28T01:43:02;4.90;;;3.90;;
11064;SDS011;5585;52.530;7.320;2023-02-28T01:45:30;5.37;;;3.93;;
11064;SDS011;5585;52.530;7.320;2023-02-28T01:47:57;5.33;;;3.93;;
11064;SDS011;5585;52.530;7.320;2023-02-28T01:50:25;6.13;;;3.93;;
11064;SDS011;5585;52.530;7.320;2023-02-28T01:52:53;4.60;;;3.90;;
11064;SDS011;5585;52.530;7.320;2023-02-28T01:55:21;5.40;;;3.80;;
11064;SDS011;5585;52.530;7.320;2023-02-28T01:57:50;4.87;;;3.77;;
11064;SDS011;5585;52.530;7.320;2023-02-28T02:00:19;8.20;;;4.07;;
11064;SDS011;5585;52.530;7.320;2023-02-28T02:02:47;6.10;;;3.77;;
11064;SDS011;5585;52.530;7.320;2023-02-28T02:05:16;4.63;;;4.03;;
11064;SDS011;5585;52.530;7.320;2023-02-28T02:07:44;4.57;;;4.17;;
11064;SDS011;5585;52.530;7.320;2023-02-28T02:10:14;5.60;;;3.87;;
11064;SDS011;5585;52.530;7.320;2023-02-28T02:15:28;4.27;;;3.53;;
11064;SDS011;5585;52.530;7.320;2023-02-28T02:17:57;5.37;;;4.00;;
11064;SDS011;5585;52.530;7.320;2023-02-28T02:20:35;5.23;;;3.90;;
11064;SDS011;5585;52.530;7.320;2023-02-28T02:23:10;4.63;;;3.80;;
11064;SDS011;5585;52.530;7.320;2023-02-28T02:25:44;5.13;;;3.70;;
11064;SDS011;5585;52.530;7.320;2023-02-28T02:36:27;4.73;;;4.00;;
11064;SDS011;5585;52.530;7.320;2023-02-28T02:38:56;6.97;;;4.10;;
11064;SDS011;5585;52.530;7.320;2023-02-28T02:41:28;5.50;;;4.10;;
11064;SDS011;5585;52.530;7.320;2023-02-28T02:43:57;4.87;;;3.87;;
11064;SDS011;5585;52.530;7.320;2023-02-28T02:46:28;4.33;;;3.77;;
11064;SDS011;5585;52.530;7.320;2023-02-28T02:48:56;5.63;;;3.80;;
11064;SDS011;5585;52.530;7.320;2023-02-28T02:51:23;4.23;;;3.40;;
11064;SDS011;5585;52.530;7.320;2023-02-28T02:53:53;5.93;;;4.10;;
11064;SDS011;5585;52.530;7.320;2023-02-28T02:56:23;5.97;;;3.50;;
11064;SDS011;5585;52.530;7.320;2023-02-28T02:58:50;4.93;;;3.30;;
11064;SDS011;5585;52.530;7.320;2023-02-28T03:01:18;4.63;;;3.37;;
11064;SDS011;5585;52.530;7.320;2023-02-28T03:03:52;4.37;;;3.30;;
11064;SDS011;5585;52.530;7.320;2023-02-28T03:06:19;5.73;;;3.97;;
11064;SDS011;5585;52.530;7.320;2023-02-28T03:08:45;5.33;;;4.00;;
11064;SDS011;5585;52.530;7.320;2023-02-28T03:11:13;4.50;;;3.50;;
11064;SDS011;5585;52.530;7.320;2023-02-28T03:16:35;4.43;;;3.30;;
11064;SDS011;5585;52.530;7.320;2023-02-28T03:19:05;4.37;;;3.50;;
11064;SDS011;5585;52.530;7.320;2023-02-28T03:21:35;5.37;;;4.20;;
11064;SDS011;5585;52.530;7.320;2023-02-28T03:24:03;4.60;;;3.57;;
11064;SDS011;5585;52.530;7.320;2023-02-28T03:26:32;4.83;;;3.23;;
11064;SDS011;5585;52.530;7.320;2023-02-28T03:29:02;5.43;;;3.53;;
11064;SDS011;5585;52.530;7.320;2023-02-28T03:31:30;4.27;;;3.60;;
11064;SDS011;5585;52.530;7.320;2023-02-28T03:33:58;3.90;;;3.50;;
11064;SDS011;5585;52.530;7.320;2023-02-28T03:36:26;5.33;;;3.93;;
11064;SDS011;5585;52.530;7.320;2023-02-28T03:38:54;4.10;;;3.70;;
11064;SDS011;5585;52.530;7.320;2023-02-28T03:41:22;5.77;;;3.73;;
11064;SDS011;5585;52.530;7.320;2023-02-28T03:43:53;4.87;;;4.00;;
11064;SDS011;5585;52.530;7.320;2023-02-28T03:46:21;5.27;;;3.80;;
11064;SDS011;5585;52.530;7.320;2023-02-28T03:48:49;5.00;;;3.60;;
11064;SDS011;5585;52.530;7.320;2023-02-28T03:51:17;5.00;;;3.50;;
11064;SDS011;5585;52.530;7.320;2023-02-28T03:53:45;4.80;;;3.87;;
11064;SDS011;5585;52.530;7.320;2023-02-28T03:56:14;5.97;;;4.47;;
11064;SDS011;5585;52.530;7.320;2023-02-28T03:58:44;5.40;;;3.87;;
11064;SDS011;5585;52.530;7.320;2023-02-28T04:01:16;4.93;;;4.10;;
11064;SDS011;5585;52.530;7.320;2023-02-28T04:03:45;5.13;;;3.83;;
11064;SDS011;5585;52.530;7.320;2023-02-28T04:06:13;6.23;;;4.23;;
11064;SDS011;5585;52.530;7.320;2023-02-28T04:08:41;5.30;;;4.10;;
11064;SDS011;5585;52.530;7.320;2023-02-28T04:11:11;4.90;;;3.60;;
11064;SDS011;5585;52.530;7.320;2023-02-28T04:13:39;5.00;;;3.90;;
11064;SDS011;5585;52.530;7.320;2023-02-28T04:16:06;4.93;;;3.83;;
11064;SDS011;5585;52.530;7.320;2023-02-28T04:18:38;4.40;;;3.87;;
11064;SDS011;5585;52.530;7.320;2023-02-28T04:21:05;4.53;;;4.00;;
11064;SDS011;5585;52.530;7.320;2023-02-28T04:23:31;5.53;;;4.53;;
11064;SDS011;5585;52.530;7.320;2023-02-28T04:25:58;5.50;;;4.40;;
11064;SDS011;5585;52.530;7.320;2023-02-28T04:28:25;6.30;;;4.30;;
11064;SDS011;5585;52.530;7.320;2023-02-28T04:30:54;5.10;;;4.10;;
11064;SDS011;5585;52.530;7.320;2023-02-28T04:33:20;4.93;;;4.43;;
11064;SDS011;5585;52.530;7.320;2023-02-28T04:35:48;5.37;;;4.17;;
11064;SDS011;5585;52.530;7.320;2023-02-28T04:38:23;6.03;;;4.70;;
11064;SDS011;5585;52.530;7.320;2023-02-28T04:40:50;6.20;;;5.23;;
11064;SDS011;5585;52.530;7.320;2023-02-28T04:43:16;8.07;;;6.10;;
11064;SDS011;5585;52.530;7.320;2023-02-28T04:45:43;7.20;;;5.90;;
11064;SDS011;5585;52.530;7.320;2023-02-28T04:48:09;8.33;;;6.63;;
11064;SDS011;5585;52.530;7.320;2023-02-28T04:50:36;9.47;;;7.23;;
11064;SDS011;5585;52.530;7.320;2023-02-28T04:53:04;9.73;;;7.40;;
11064;SDS011;5585;52.530;7.320;2023-02-28T04:55:30;9.73;;;7.07;;
11064;SDS011;5585;52.530;7.320;2023-02-28T04:57:57;8.83;;;6.00;;
11064;SDS011;5585;52.530;7.320;2023-02-28T05:00:23;8.20;;;5.67;;
11064;SDS011;5585;52.530;7.320;2023-02-28T05:02:50;7.13;;;5.47;;
11064;SDS011;5585;52.530;7.320;2023-02-28T05:05:16;6.43;;;4.83;;
11064;SDS011;5585;52.530;7.320;2023-02-28T05:07:44;6.20;;;4.70;;
11064;SDS011;5585;52.530;7.320;2023-02-28T05:10:12;7.17;;;4.80;;
11064;SDS011;5585;52.530;7.320;2023-02-28T05:12:39;6.70;;;4.53;;
11064;SDS011;5585;52.530;7.320;2023-02-28T05:15:05;6.63;;;4.70;;
11064;SDS011;5585;52.530;7.320;2023-02-28T05:17:32;6.90;;;4.63;;
11064;SDS011;5585;52.530;7.320;2023-02-28T05:19:59;5.63;;;4.70;;
11064;SDS011;5585;52.530;7.320;2023-02-28T05:22:25;6.17;;;5.10;;
11064;SDS011;5585;52.530;7.320;2023-02-28T05:24:52;6.40;;;5.10;;
11064;SDS011;5585;52.530;7.320;2023-02-28T05:27:19;7.03;;;4.90;;
11064;SDS011;5585;52.530;7.320;2023-02-28T05:29:46;8.17;;;5.03;;
11064;SDS011;5585;52.530;7.320;2023-02-28T05:32:12;5.07;;;4.50;;
11064;SDS011;5585;52.530;7.320;2023-02-28T05:34:39;6.80;;;5.13;;
11064;SDS011;5585;52.530;7.320;2023-02-28T05:37:06;7.53;;;5.07;;
11064;SDS011;5585;52.530;7.320;2023-02-28T05:39:33;5.80;;;4.87;;
11064;SDS011;5585;52.530;7.320;2023-02-28T05:41:59;5.57;;;4.87;;
11064;SDS011;5585;52.530;7.320;2023-02-28T05:44:27;5.40;;;4.40;;
11064;SDS011;5585;52.530;7.320;2023-02-28T05:46:54;5.77;;;4.33;;
11064;SDS011;5585;52.530;7.320;2023-02-28T05:49:20;5.43;;;4.67;;
11064;SDS011;5585;52.530;7.320;2023-02-28T05:51:47;6.47;;;4.77;;
11064;SDS011;5585;52.530;7.320;2023-02-28T05:54:13;6.40;;;4.87;;
11064;SDS011;5585;52.530;7.320;2023-02-28T05:56:40;5.23;;;4.57;;
11064;SDS011;5585;52.530;7.320;2023-02-28T05:59:09;6.60;;;5.17;;
11064;SDS011;5585;52.530;7.320;2023-02-28T06:01:37;6.83;;;5.07;;
11064;SDS011;5585;52.530;7.320;2023-02-28T06:04:05;8.07;;;5.10;;
11064;SDS011;5585;52.530;7.320;2023-02-28T06:06:31;4.87;;;4.33;;
11064;SDS011;5585;52.530;7.320;2023-02-28T06:08:59;7.10;;;4.97;;
11064;SDS011;5585;52.530;7.320;2023-02-28T06:11:26;6.40;;;4.90;;
11064;SDS011;5585;52.530;7.320;2023-02-28T06:13:53;5.93;;;4.70;;
11064;SDS011;5585;52.530;7.320;2023-02-28T06:16:20;8.40;;;5.73;;
11064;SDS011;5585;52.530;7.320;2023-02-28T06:18:47;7.47;;;5.33;;
11064;SDS011;5585;52.530;7.320;2023-02-28T06:21:14;6.80;;;5.23;;
11064;SDS011;5585;52.530;7.320;2023-02-28T06:23:40;6.00;;;5.07;;
11064;SDS011;5585;52.530;7.320;2023-02-28T06:26:07;6.60;;;5.17;;
11064;SDS011;5585;52.530;7.320;2023-02-28T06:28:34;5.40;;;4.40;;
11064;SDS011;5585;52.530;7.320;2023-02-28T06:31:05;6.53;;;4.93;;
11064;SDS011;5585;52.530;7.320;2023-02-28T06:33:31;5.33;;;4.73;;
11064;SDS011;5585;52.530;7.320;2023-02-28T06:35:59;5.33;;;4.67;;
11064;SDS011;5585;52.530;7.320;2023-02-28T06:38:26;6.80;;;4.60;;
11064;SDS011;5585;52.530;7.320;2023-02-28T06:40:53;7.83;;;4.07;;
11064;SDS011;5585;52.530;7.320;2023-02-28T06:43:20;6.23;;;4.13;;
11064;SDS011;5585;52.530;7.320;2023-02-28T06:45:46;4.70;;;3.77;;
11064;SDS011;5585;52.530;7.320;2023-02-28T06:48:13;7.60;;;3.90;;
11064;SDS011;5585;52.530;7.320;2023-02-28T06:50:39;6.23;;;3.73;;
11064;SDS011;5585;52.530;7.320;2023-02-28T06:53:07;7.10;;;3.97;;
11064;SDS011;5585;52.530;7.320;2023-02-28T06:55:34;5.67;;;3.90;;
11064;SDS011;5585;52.530;7.320;2023-02-28T06:58:01;5.70;;;3.63;;
11064;SDS011;5585;52.530;7.320;2023-02-28T07:00:27;5.23;;;3.83;;
11064;SDS011;5585;52.530;7.320;2023-02-28T07:02:54;5.63;;;3.77;;
11064;SDS011;5585;52.530;7.320;2023-02-28T07:05:20;4.67;;;3.77;;
11064;SDS011;5585;52.530;7.320;2023-02-28T07:07:47;6.07;;;3.83;;
11064;SDS011;5585;52.530;7.320;2023-02-28T07:10:15;5.60;;;3.97;;
11064;SDS011;5585;52.530;7.320;2023-02-28T07:12:42;4.47;;;3.80;;
11064;SDS011;5585;52.530;7.320;2023-02-28T07:15:09;4.87;;;3.70;;
11064;SDS011;5585;52.530;7.320;2023-02-28T07:17:36;5.87;;;3.93;;
11064;SDS011;5585;52.530;7.320;2023-02-28T07:20:03;5.97;;;3.80;;
11064;SDS011;5585;52.530;7.320;2023-02-28T07:22:30;5.40;;;3.90;;
11064;SDS011;5585;52.530;7.320;2023-02-28T07:24:56;4.23;;;3.30;;
11064;SDS011;5585;52.530;7.320;2023-02-28T07:27:24;5.53;;;3.53;;
11064;SDS011;5585;52.530;7.320;2023-02-28T07:29:51;4.40;;;3.53;;
11064;SDS011;5585;52.530;7.320;2023-02-28T07:32:18;6.20;;;3.80;;
11064;SDS011;5585;52.530;7.320;2023-02-28T07:34:44;5.00;;;3.47;;
11064;SDS011;5585;52.530;7.320;2023-02-28T07:37:11;5.47;;;3.30;;
11064;SDS011;5585;52.530;7.320;2023-02-28T07:39:37;4.33;;;3.50;;
11064;SDS011;5585;52.530;7.320;2023-02-28T07:42:06;5.43;;;3.60;;
11064;SDS011;5585;52.530;7.320;2023-02-28T07:44:37;5.10;;;3.80;;
11064;SDS011;5585;52.530;7.320;2023-02-28T07:47:05;6.07;;;3.23;;
11064;SDS011;5585;52.530;7.320;2023-02-28T07:49:32;4.87;;;3.23;;
11064;SDS011;5585;52.530;7.320;2023-02-28T07:51:58;4.40;;;3.00;;
11064;SDS011;5585;52.530;7.320;2023-02-28T07:54:25;4.13;;;3.00;;
11064;SDS011;5585;52.530;7.320;2023-02-28T07:56:51;3.77;;;2.80;;
11064;SDS011;5585;52.530;7.320;2023-02-28T07:59:17;3.70;;;2.97;;
11064;SDS011;5585;52.530;7.320;2023-02-28T08:01:45;3.60;;;2.80;;
11064;SDS011;5585;52.530;7.320;2023-02-28T08:04:14;3.57;;;2.50;;
11064;SDS011;5585;52.530;7.320;2023-02-28T08:06:41;3.70;;;2.53;;
11064;SDS011;5585;52.530;7.320;2023-02-28T08:09:07;3.97;;;2.77;;
11064;SDS011;5585;52.530;7.320;2023-02-28T08:11:34;3.03;;;2.20;;
11064;SDS011;5585;52.530;7.320;2023-02-28T08:14:01;3.53;;;2.20;;
11064;SDS011;5585;52.530;7.320;2023-02-28T08:16:27;2.97;;;2.10;;
11064;SDS011;5585;52.530;7.320;2023-02-28T08:18:55;3.60;;;2.20;;
11064;SDS011;5585;52.530;7.320;2023-02-28T08:21:22;3.67;;;2.27;;
11064;SDS011;5585;52.530;7.320;2023-02-28T08:23:48;2.80;;;2.00;;
11064;SDS011;5585;52.530;7.320;2023-02-28T08:26:15;3.10;;;1.87;;
11064;SDS011;5585;52.530;7.320;2023-02-28T08:28:42;1.60;;;1.23;;
11064;SDS011;5585;52.530;7.320;2023-02-28T08:31:09;1.83;;;1.50;;
11064;SDS011;5585;52.530;7.320;2023-02-28T08:33:36;3.17;;;2.17;;
11064;SDS011;5585;52.530;7.320;2023-02-28T08:36:06;2.57;;;1.50;;
11064;SDS011;5585;52.530;7.320;2023-02-28T08:38:33;4.50;;;1.50;;
11064;SDS011;5585;52.530;7.320;2023-02-28T08:41:00;1.83;;;1.40;;
11064;SDS011;5585;52.530;7.320;2023-02-28T08:43:27;2.13;;;1.20;;
11064;SDS011;5585;52.530;7.320;2023-02-28T08:45:54;1.77;;;1.23;;
11064;SDS011;5585;52.530;7.320;2023-02-28T08:48:21;1.47;;;1.07;;
11064;SDS011;5585;52.530;7.320;2023-02-28T08:50:54;1.23;;;0.97;;
11064;SDS011;5585;52.530;7.320;2023-02-28T08:53:22;0.90;;;0.77;;
11064;SDS011;5585;52.530;7.320;2023-02-28T08:55:55;0.70;;;0.57;;
11064;SDS011;5585;52.530;7.320;2023-02-28T08:58:21;1.13;;;0.70;;
11064;SDS011;5585;52.530;7.320;2023-02-28T09:00:48;0.90;;;0.60;;
11064;SDS011;5585;52.530;7.320;2023-02-28T09:03:15;1.50;;;1.10;;
11064;SDS011;5585;52.530;7.320;2023-02-28T09:05:42;1.83;;;1.00;;
11064;SDS011;5585;52.530;7.320;2023-02-28T09:08:17;1.10;;;0.60;;
11064;SDS011;5585;52.530;7.320;2023-02-28T09:10:45;1.87;;;0.70;;
11064;SDS011;5585;52.530;7.320;2023-02-28T09:13:12;1.87;;;0.80;;
11064;SDS011;5585;52.530;7.320;2023-02-28T09:15:38;0.90;;;0.67;;
11064;SDS011;5585;52.530;7.320;2023-02-28T09:18:05;0.97;;;0.80;;
11064;SDS011;5585;52.530;7.320;2023-02-28T09:20:31;2.23;;;0.60;;
11064;SDS011;5585;52.530;7.320;2023-02-28T09:22:58;0.67;;;0.60;;
11064;SDS011;5585;52.530;7.320;2023-02-28T09:25:24;0.90;;;0.60;;
11064;SDS011;5585;52.530;7.320;2023-02-28T09:27:52;0.97;;;0.73;;
11064;SDS011;5585;52.530;7.320;2023-02-28T09:30:19;0.83;;;0.60;;
11064;SDS011;5585;52.530;7.320;2023-02-28T09:32:45;0.93;;;0.70;;
11064;SDS011;5585;52.530;7.320;2023-02-28T09:35:17;1.80;;;0.80;;
11064;SDS011;5585;52.530;7.320;2023-02-28T09:37:43;1.40;;;0.60;;
11064;SDS011;5585;52.530;7.320;2023-02-28T09:40:10;0.97;;;0.70;;
11064;SDS011;5585;52.530;7.320;2023-02-28T09:42:38;1.20;;;0.80;;
11064;SDS011;5585;52.530;7.320;2023-02-28T09:45:10;1.43;;;0.90;;
11064;SDS011;5585;52.530;7.320;2023-02-28T09:47:40;1.03;;;0.60;;
11064;SDS011;5585;52.530;7.320;2023-02-28T09:50:11;0.93;;;0.80;;
11064;SDS011;5585;52.530;7.320;2023-02-28T09:52:45;1.00;;;0.70;;
11064;SDS011;5585;52.530;7.320;2023-02-28T09:55:20;0.77;;;0.60;;
11064;SDS011;5585;52.530;7.320;2023-02-28T09:57:48;1.37;;;0.77;;
11064;SDS011;5585;52.530;7.320;2023-02-28T10:00:19;1.00;;;0.80;;
11064;SDS011;5585;52.530;7.320;2023-02-28T10:03:01;1.00;;;0.70;;
11064;SDS011;5585;52.530;7.320;2023-02-28T10:05:31;2.20;;;0.83;;
11064;SDS011;5585;52.530;7.320;2023-02-28T10:08:01;1.03;;;0.77;;
11064;SDS011;5585;52.530;7.320;2023-02-28T10:10:32;1.37;;;1.00;;
11064;SDS011;5585;52.530;7.320;2023-02-28T10:13:00;1.10;;;0.70;;
11064;SDS011;5585;52.530;7.320;2023-02-28T10:15:29;0.80;;;0.70;;
11064;SDS011;5585;52.530;7.320;2023-02-28T10:17:57;0.90;;;0.73;;
11064;SDS011;5585;52.530;7.320;2023-02-28T10:20:25;1.20;;;0.50;;
11064;SDS011;5585;52.530;7.320;2023-02-28T10:22:57;2.00;;;0.70;;
11064;SDS011;5585;52.530;7.320;2023-02-28T10:25:26;1.00;;;0.60;;
11064;SDS011;5585;52.530;7.320;2023-02-28T10:27:53;1.30;;;0.80;;
11064;SDS011;5585;52.530;7.320;2023-02-28T10:30:20;0.80;;;0.70;;
11064;SDS011;5585;52.530;7.320;2023-02-28T10:32:49;1.20;;;0.83;;
11064;SDS011;5585;52.530;7.320;2023-02-28T10:35:17;2.03;;;0.80;;
11064;SDS011;5585;52.530;7.320;2023-02-28T10:37:45;1.00;;;0.70;;
11064;SDS011;5585;52.530;7.320;2023-02-28T10:40:24;1.73;;;0.80;;
11064;SDS011;5585;52.530;7.320;2023-02-28T10:42:54;1.83;;;1.00;;
11064;SDS011;5585;52.530;7.320;2023-02-28T10:45:21;0.70;;;0.60;;
11064;SDS011;5585;52.530;7.320;2023-02-28T10:47:51;1.23;;;0.80;;
11064;SDS011;5585;52.530;7.320;2023-02-28T10:50:28;1.07;;;0.73;;
11064;SDS011;5585;52.530;7.320;2023-02-28T10:52:55;1.63;;;0.70;;
11064;SDS011;5585;52.530;7.320;2023-02-28T10:55:31;1.97;;;1.00;;
11064;SDS011;5585;52.530;7.320;2023-02-28T10:57:57;1.17;;;0.70;;
11064;SDS011;5585;52.530;7.320;2023-02-28T11:00:24;0.90;;;0.60;;
11064;SDS011;5585;52.530;7.320;2023-02-28T11:02:52;1.30;;;1.00;;
11064;SDS011;5585;52.530;7.320;2023-02-28T11:05:26;1.27;;;0.73;;
11064;SDS011;5585;52.530;7.320;2023-02-28T11:07:53;1.37;;;0.70;;
11064;SDS011;5585;52.530;7.320;2023-02-28T11:10:30;1.43;;;0.90;;
11064;SDS011;5585;52.530;7.320;2023-02-28T11:12:59;2.17;;;1.00;;
11064;SDS011;5585;52.530;7.320;2023-02-28T11:15:27;1.10;;;0.80;;
11064;SDS011;5585;52.530;7.320;2023-02-28T11:17:56;1.73;;;1.33;;
11064;SDS011;5585;52.530;7.320;2023-02-28T11:20:23;2.20;;;1.70;;
11064;SDS011;5585;52.530;7.320;2023-02-28T11:22:50;1.23;;;0.90;;
11064;SDS011;5585;52.530;7.320;2023-02-28T11:25:19;1.73;;;0.80;;
11064;SDS011;5585;52.530;7.320;2023-02-28T11:27:48;1.40;;;0.80;;
11064;SDS011;5585;52.530;7.320;2023-02-28T11:35:54;2.40;;;0.50;;
11064;SDS011;5585;52.530;7.320;2023-02-28T11:38:23;0.97;;;0.70;;
11064;SDS011;5585;52.530;7.320;2023-02-28T11:40:53;1.30;;;0.90;;
11064;SDS011;5585;52.530;7.320;2023-02-28T11:43:29;1.13;;;0.93;;
11064;SDS011;5585;52.530;7.320;2023-02-28T11:46:01;1.07;;;0.70;;
11064;SDS011;5585;52.530;7.320;2023-02-28T11:48:32;0.80;;;0.77;;
11064;SDS011;5585;52.530;7.320;2023-02-28T11:51:05;1.43;;;0.80;;
11064;SDS011;5585;52.530;7.320;2023-02-28T11:53:44;1.33;;;1.10;;
11064;SDS011;5585;52.530;7.320;2023-02-28T11:56:15;1.27;;;0.80;;
11064;SDS011;5585;52.530;7.320;2023-02-28T11:58:46;1.07;;;0.83;;
11064;SDS011;5585;52.530;7.320;2023-02-28T12:01:19;2.47;;;1.03;;
11064;SDS011;5585;52.530;7.320;2023-02-28T12:03:53;1.43;;;0.90;;
11064;SDS011;5585;52.530;7.320;2023-02-28T12:06:24;1.70;;;0.97;;
11064;SDS011;5585;52.530;7.320;2023-02-28T12:09:00;2.67;;;1.10;;
11064;SDS011;5585;52.530;7.320;2023-02-28T12:11:30;1.80;;;0.90;;
11064;SDS011;5585;52.530;7.320;2023-02-28T12:14:06;1.80;;;0.87;;
11064;SDS011;5585;52.530;7.320;2023-02-28T12:16:41;1.13;;;0.83;;
11064;SDS011;5585;52.530;7.320;2023-02-28T12:19:19;1.67;;;0.93;;
11064;SDS011;5585;52.530;7.320;2023-02-28T12:21:58;1.33;;;0.70;;
11064;SDS011;5585;52.530;7.320;2023-02-28T12:24:35;1.00;;;0.70;;
11064;SDS011;5585;52.530;7.320;2023-02-28T12:27:05;1.40;;;0.80;;
11064;SDS011;5585;52.530;7.320;2023-02-28T12:29:34;2.00;;;0.90;;
11064;SDS011;5585;52.530;7.320;2023-02-28T12:32:05;1.27;;;0.80;;
11064;SDS011;5585;52.530;7.320;2023-02-28T12:34:33;1.00;;;0.87;;
11064;SDS011;5585;52.530;7.320;2023-02-28T12:37:03;0.80;;;0.70;;
11064;SDS011;5585;52.530;7.320;2023-02-28T12:39:33;0.80;;;0.80;;
11064;SDS011;5585;52.530;7.320;2023-02-28T12:42:02;1.30;;;0.73;;
11064;SDS011;5585;52.530;7.320;2023-02-28T12:44:30;1.50;;;0.93;;
11064;SDS011;5585;52.530;7.320;2023-02-28T12:46:59;1.37;;;0.70;;
11064;SDS011;5585;52.530;7.320;2023-02-28T12:49:28;1.73;;;0.90;;
11064;SDS011;5585;52.530;7.320;2023-02-28T12:51:57;2.33;;;0.80;;
11064;SDS011;5585;52.530;7.320;2023-02-28T12:54:26;1.20;;;0.70;;
11064;SDS011;5585;52.530;7.320;2023-02-28T12:56:58;1.40;;;0.90;;
11064;SDS011;5585;52.530;7.320;2023-02-28T12:59:32;2.00;;;1.20;;
11064;SDS011;5585;52.530;7.320;2023-02-28T13:02:02;1.40;;;0.90;;
11064;SDS011;5585;52.530;7.320;2023-02-28T13:10:06;1.40;;;0.90;;
11064;SDS011;5585;52.530;7.320;2023-02-28T13:12:33;1.83;;;1.00;;
11064;SDS011;5585;52.530;7.320;2023-02-28T13:15:02;0.90;;;0.80;;
11064;SDS011;5585;52.530;7.320;2023-02-28T13:17:30;1.60;;;0.90;;
11064;SDS011;5585;52.530;7.320;2023-02-28T13:19:57;1.83;;;1.10;;
11064;SDS011;5585;52.530;7.320;2023-02-28T13:22:37;1.40;;;1.00;;
11064;SDS011;5585;52.530;7.320;2023-02-28T13:27:47;1.00;;;0.80;;
11064;SDS011;5585;52.530;7.320;2023-02-28T13:33:19;1.23;;;0.90;;
11064;SDS011;5585;52.530;7.320;2023-02-28T13:35:48;1.17;;;1.07;;
11064;SDS011;5585;52.530;7.320;2023-02-28T13:38:16;1.67;;;1.00;;
11064;SDS011;5585;52.530;7.320;2023-02-28T13:40:43;0.87;;;0.83;;
11064;SDS011;5585;52.530;7.320;2023-02-28T13:43:11;0.70;;;0.70;;
11064;SDS011;5585;52.530;7.320;2023-02-28T13:45:37;0.93;;;0.73;;
11064;SDS011;5585;52.530;7.320;2023-02-28T13:48:17;1.13;;;0.73;;
11064;SDS011;5585;52.530;7.320;2023-02-28T13:50:45;0.73;;;0.60;;
11064;SDS011;5585;52.530;7.320;2023-02-28T13:53:26;1.53;;;0.80;;
11064;SDS011;5585;52.530;7.320;2023-02-28T13:55:56;1.13;;;0.73;;
11064;SDS011;5585;52.530;7.320;2023-02-28T14:01:20;1.00;;;0.80;;
11064;SDS011;5585;52.530;7.320;2023-02-28T14:04:02;0.93;;;0.60;;
11064;SDS011;5585;52.530;7.320;2023-02-28T14:06:33;2.80;;;1.00;;
11064;SDS011;5585;52.530;7.320;2023-02-28T14:09:02;0.77;;;0.77;;
11064;SDS011;5585;52.530;7.320;2023-02-28T14:11:32;1.23;;;0.80;;
11064;SDS011;5585;52.530;7.320;2023-02-28T14:13:59;0.87;;;0.83;;
11064;SDS011;5585;52.530;7.320;2023-02-28T14:16:34;1.10;;;0.70;;
11064;SDS011;5585;52.530;7.320;2023-02-28T14:19:04;0.98;;;0.80;;
11064;SDS011;5585;52.530;7.320;2023-02-28T14:21:32;2.25;;;0.70;;
11064;SDS011;5585;52.530;7.320;2023-02-28T14:26:53;1.10;;;0.82;;
11064;SDS011;5585;52.530;7.320;2023-02-28T14:29:27;1.08;;;0.77;;
11064;SDS011;5585;52.530;7.320;2023-02-28T14:32:01;0.80;;;0.70;;
11064;SDS011;5585;52.530;7.320;2023-02-28T14:34:40;0.80;;;0.80;;
11064;SDS011;5585;52.530;7.320;2023-02-28T14:37:10;0.73;;;0.70;;
11064;SDS011;5585;52.530;7.320;2023-02-28T14:39:40;1.83;;;0.80;;
11064;SDS011;5585;52.530;7.320;2023-02-28T14:44:53;1.90;;;1.07;;
11064;SDS011;5585;52.530;7.320;2023-02-28T14:47:21;1.53;;;1.17;;
11064;SDS011;5585;52.530;7.320;2023-02-28T14:49:49;0.97;;;0.90;;
11064;SDS011;5585;52.530;7.320;2023-02-28T14:52:17;0.63;;;0.63;;
11064;SDS011;5585;52.530;7.320;2023-02-28T14:54:45;1.17;;;0.87;;
11064;SDS011;5585;52.530;7.320;2023-02-28T14:57:20;0.70;;;0.70;;
11064;SDS011;5585;52.530;7.320;2023-02-28T14:59:56;1.17;;;1.03;;
11064;SDS011;5585;52.530;7.320;2023-02-28T15:02:25;1.30;;;1.10;;
11064;SDS011;5585;52.530;7.320;2023-02-28T15:04:52;1.40;;;1.30;;
11064;SDS011;5585;52.530;7.320;2023-02-28T15:07:19;1.67;;;1.00;;
11064;SDS011;5585;52.530;7.320;2023-02-28T15:10:06;1.53;;;1.00;;
11064;SDS011;5585;52.530;7.320;2023-02-28T15:12:32;1.50;;;1.00;;
11064;SDS011;5585;52.530;7.320;2023-02-28T15:14:59;1.33;;;0.97;;
11064;SDS011;5585;52.530;7.320;2023-02-28T15:17:27;1.20;;;1.10;;
11064;SDS011;5585;52.530;7.320;2023-02-28T15:19:53;3.43;;;2.93;;
11064;SDS011;5585;52.530;7.320;2023-02-28T15:22:23;1.73;;;1.20;;
11064;SDS011;5585;52.530;7.320;2023-02-28T15:24:53;2.33;;;1.20;;
11064;SDS011;5585;52.530;7.320;2023-02-28T15:27:20;1.57;;;0.97;;
11064;SDS011;5585;52.530;7.320;2023-02-28T15:29:47;1.20;;;0.87;;
11064;SDS011;5585;52.530;7.320;2023-02-28T15:37:47;2.17;;;1.50;;
11064;SDS011;5585;52.530;7.320;2023-02-28T15:40:16;2.30;;;1.30;;
11064;SDS011;5585;52.530;7.320;2023-02-28T15:42:42;2.47;;;1.00;;
11064;SDS011;5585;52.530;7.320;2023-02-28T15:45:30;1.63;;;1.20;;
11064;SDS011;5585;52.530;7.320;2023-02-28T15:48:00;4.03;;;2.70;;
11064;SDS011;5585;52.530;7.320;2023-02-28T15:50:27;2.20;;;1.30;;
11064;SDS011;5585;52.530;7.320;2023-02-28T15:52:55;2.70;;;1.37;;